sensor_id;sensor_type;location;lat;lon;timestamp;P1;durP1;ratioP1;P2;durP2;ratioP2
48629;SDS011;34426;52.180;4.462;2023-05-10T00:01:38;40.92;;;29.52;;
48629;SDS011;34426;52.180;4.462;2023-05-10T00:04:03;46.85;;;29.63;;
48629;SDS011;34426;52.180;4.462;2023-05-10T00:06:29;43.47;;;32.22;;
48629;SDS011;34426;52.180;4.462;2023-05-10T00:08:56;43.03;;;32.80;;
48629;SDS011;34426;52.180;4.462;2023-05-10T00:11:21;40.28;;;31.10;;
48629;SDS011;34426;52.180;4.462;2023-05-10T00:13:47;38.45;;;31.25;;
48629;SDS011;34426;52.180;4.462;2023-05-10T00:16:12;47.03;;;32.90;;
48629;SDS011;34426;52.180;4.462;2023-05-10T00:18:38;42.67;;;32.25;;
48629;SDS011;34426;52.180;4.462;2023-05-10T00:21:04;41.45;;;30.80;;
48629;SDS011;34426;52.180;4.462;2023-05-10T00:23:30;53.13;;;37.45;;
48629;SDS011;34426;52.180;4.462;2023-05-10T00:25:57;48.83;;;36.05;;
48629;SDS011;34426;52.180;4.462;2023-05-10T00:28:23;48.97;;;33.50;;
48629;SDS011;34426;52.180;4.462;2023-05-10T00:30:48;56.50;;;40.85;;
48629;SDS011;34426;52.180;4.462;2023-05-10T00:33:16;43.33;;;34.70;;
48629;SDS011;34426;52.180;4.462;2023-05-10T00:35:42;50.13;;;36.63;;
48629;SDS011;34426;52.180;4.462;2023-05-10T00:38:07;46.83;;;36.83;;
48629;SDS011;34426;52.180;4.462;2023-05-10T00:40:33;44.38;;;36.08;;
48629;SDS011;34426;52.180;4.462;2023-05-10T00:43:02;45.70;;;37.33;;
48629;SDS011;34426;52.180;4.462;2023-05-10T00:45:27;59.38;;;39.53;;
48629;SDS011;34426;52.180;4.462;2023-05-10T00:47:53;56.08;;;40.65;;
48629;SDS011;34426;52.180;4.462;2023-05-10T00:50:21;56.75;;;40.50;;
48629;SDS011;34426;52.180;4.462;2023-05-10T00:52:49;59.58;;;41.47;;
48629;SDS011;34426;52.180;4.462;2023-05-10T00:55:15;60.42;;;42.72;;
48629;SDS011;34426;52.180;4.462;2023-05-10T00:57:41;55.60;;;40.55;;
48629;SDS011;34426;52.180;4.462;2023-05-10T01:00:10;62.28;;;40.00;;
48629;SDS011;34426;52.180;4.462;2023-05-10T01:02:37;52.83;;;37.38;;
48629;SDS011;34426;52.180;4.462;2023-05-10T01:05:03;51.05;;;38.63;;
48629;SDS011;34426;52.180;4.462;2023-05-10T01:07:29;60.45;;;41.72;;
48629;SDS011;34426;52.180;4.462;2023-05-10T01:09:54;56.35;;;41.30;;
48629;SDS011;34426;52.180;4.462;2023-05-10T01:12:20;56.80;;;40.88;;
48629;SDS011;34426;52.180;4.462;2023-05-10T01:14:49;61.45;;;43.42;;
48629;SDS011;34426;52.180;4.462;2023-05-10T01:17:16;63.85;;;43.97;;
48629;SDS011;34426;52.180;4.462;2023-05-10T01:19:42;73.15;;;47.38;;
48629;SDS011;34426;52.180;4.462;2023-05-10T01:22:12;61.33;;;44.80;;
48629;SDS011;34426;52.180;4.462;2023-05-10T01:28:02;81.68;;;50.35;;
48629;SDS011;34426;52.180;4.462;2023-05-10T01:30:47;86.38;;;52.08;;
48629;SDS011;34426;52.180;4.462;2023-05-10T01:33:30;94.72;;;54.40;;
48629;SDS011;34426;52.180;4.462;2023-05-10T01:36:01;97.78;;;55.30;;
48629;SDS011;34426;52.180;4.462;2023-05-10T01:38:32;90.75;;;54.38;;
48629;SDS011;34426;52.180;4.462;2023-05-10T01:41:08;91.47;;;52.92;;
48629;SDS011;34426;52.180;4.462;2023-05-10T01:43:42;91.68;;;52.03;;
48629;SDS011;34426;52.180;4.462;2023-05-10T01:46:14;88.95;;;50.40;;
48629;SDS011;34426;52.180;4.462;2023-05-10T01:48:46;91.13;;;53.22;;
48629;SDS011;34426;52.180;4.462;2023-05-10T01:51:13;88.00;;;53.25;;
48629;SDS011;34426;52.180;4.462;2023-05-10T01:53:44;90.88;;;54.80;;
48629;SDS011;34426;52.180;4.462;2023-05-10T01:56:12;84.20;;;51.58;;
48629;SDS011;34426;52.180;4.462;2023-05-10T01:58:40;78.75;;;51.42;;
48629;SDS011;34426;52.180;4.462;2023-05-10T02:01:10;84.57;;;51.63;;
48629;SDS011;34426;52.180;4.462;2023-05-10T02:03:37;88.30;;;52.53;;
48629;SDS011;34426;52.180;4.462;2023-05-10T02:06:06;86.03;;;50.55;;
48629;SDS011;34426;52.180;4.462;2023-05-10T02:08:34;85.63;;;50.78;;
48629;SDS011;34426;52.180;4.462;2023-05-10T02:11:01;81.40;;;49.20;;
48629;SDS011;34426;52.180;4.462;2023-05-10T02:13:28;78.30;;;48.35;;
48629;SDS011;34426;52.180;4.462;2023-05-10T02:15:56;77.55;;;47.80;;
48629;SDS011;34426;52.180;4.462;2023-05-10T02:18:23;81.18;;;46.88;;
48629;SDS011;34426;52.180;4.462;2023-05-10T02:20:50;77.88;;;46.83;;
48629;SDS011;34426;52.180;4.462;2023-05-10T02:23:20;72.68;;;45.90;;
48629;SDS011;34426;52.180;4.462;2023-05-10T02:25:46;75.53;;;47.70;;
48629;SDS011;34426;52.180;4.462;2023-05-10T02:28:14;73.70;;;47.67;;
48629;SDS011;34426;52.180;4.462;2023-05-10T02:30:41;72.45;;;45.00;;
48629;SDS011;34426;52.180;4.462;2023-05-10T02:33:07;69.15;;;45.05;;
48629;SDS011;34426;52.180;4.462;2023-05-10T02:35:33;79.38;;;47.75;;
48629;SDS011;34426;52.180;4.462;2023-05-10T02:38:00;73.85;;;46.72;;
48629;SDS011;34426;52.180;4.462;2023-05-10T02:40:27;80.45;;;44.15;;
48629;SDS011;34426;52.180;4.462;2023-05-10T02:42:54;71.97;;;40.10;;
48629;SDS011;34426;52.180;4.462;2023-05-10T02:45:23;69.85;;;38.92;;
48629;SDS011;34426;52.180;4.462;2023-05-10T02:47:54;62.85;;;38.40;;
48629;SDS011;34426;52.180;4.462;2023-05-10T02:50:23;59.70;;;34.95;;
48629;SDS011;34426;52.180;4.462;2023-05-10T02:55:25;55.13;;;37.25;;
48629;SDS011;34426;52.180;4.462;2023-05-10T02:57:58;57.05;;;38.67;;
48629;SDS011;34426;52.180;4.462;2023-05-10T03:00:25;57.78;;;40.75;;
48629;SDS011;34426;52.180;4.462;2023-05-10T03:02:50;54.92;;;33.03;;
48629;SDS011;34426;52.180;4.462;2023-05-10T03:05:16;65.30;;;40.67;;
48629;SDS011;34426;52.180;4.462;2023-05-10T03:07:41;57.05;;;32.00;;
48629;SDS011;34426;52.180;4.462;2023-05-10T03:10:07;59.72;;;34.00;;
48629;SDS011;34426;52.180;4.462;2023-05-10T03:12:41;74.25;;;40.78;;
48629;SDS011;34426;52.180;4.462;2023-05-10T03:17:47;67.28;;;41.83;;
48629;SDS011;34426;52.180;4.462;2023-05-10T03:20:20;67.35;;;40.13;;
48629;SDS011;34426;52.180;4.462;2023-05-10T03:22:50;59.33;;;38.38;;
48629;SDS011;34426;52.180;4.462;2023-05-10T03:25:18;72.60;;;43.20;;
48629;SDS011;34426;52.180;4.462;2023-05-10T03:27:47;73.50;;;40.97;;
48629;SDS011;34426;52.180;4.462;2023-05-10T03:30:14;61.08;;;36.90;;
48629;SDS011;34426;52.180;4.462;2023-05-10T03:32:41;66.38;;;41.58;;
48629;SDS011;34426;52.180;4.462;2023-05-10T03:35:07;65.50;;;32.28;;
48629;SDS011;34426;52.180;4.462;2023-05-10T03:37:33;65.88;;;33.90;;
48629;SDS011;34426;52.180;4.462;2023-05-10T03:39:58;73.28;;;33.97;;
48629;SDS011;34426;52.180;4.462;2023-05-10T03:42:23;56.58;;;30.40;;
48629;SDS011;34426;52.180;4.462;2023-05-10T03:44:50;50.03;;;27.58;;
48629;SDS011;34426;52.180;4.462;2023-05-10T03:47:16;44.88;;;27.63;;
48629;SDS011;34426;52.180;4.462;2023-05-10T03:49:41;45.78;;;28.80;;
48629;SDS011;34426;52.180;4.462;2023-05-10T03:52:07;46.13;;;27.90;;
48629;SDS011;34426;52.180;4.462;2023-05-10T03:54:32;57.38;;;33.13;;
48629;SDS011;34426;52.180;4.462;2023-05-10T03:56:58;50.22;;;30.10;;
48629;SDS011;34426;52.180;4.462;2023-05-10T03:59:23;59.42;;;35.33;;
48629;SDS011;34426;52.180;4.462;2023-05-10T04:01:50;61.65;;;37.30;;
48629;SDS011;34426;52.180;4.462;2023-05-10T04:04:16;57.35;;;31.48;;
48629;SDS011;34426;52.180;4.462;2023-05-10T04:06:41;56.63;;;35.05;;
48629;SDS011;34426;52.180;4.462;2023-05-10T04:09:07;59.95;;;34.05;;
48629;SDS011;34426;52.180;4.462;2023-05-10T04:11:32;67.97;;;36.28;;
48629;SDS011;34426;52.180;4.462;2023-05-10T04:13:58;53.70;;;27.98;;
48629;SDS011;34426;52.180;4.462;2023-05-10T04:16:23;43.97;;;25.05;;
48629;SDS011;34426;52.180;4.462;2023-05-10T04:18:50;42.00;;;26.17;;
48629;SDS011;34426;52.180;4.462;2023-05-10T04:21:15;42.35;;;25.42;;
48629;SDS011;34426;52.180;4.462;2023-05-10T04:23:41;34.45;;;22.92;;
48629;SDS011;34426;52.180;4.462;2023-05-10T04:26:06;27.95;;;20.02;;
48629;SDS011;34426;52.180;4.462;2023-05-10T04:28:32;31.73;;;18.90;;
48629;SDS011;34426;52.180;4.462;2023-05-10T04:31:01;27.90;;;20.00;;
48629;SDS011;34426;52.180;4.462;2023-05-10T04:33:27;29.45;;;20.27;;
48629;SDS011;34426;52.180;4.462;2023-05-10T04:35:53;30.33;;;21.02;;
48629;SDS011;34426;52.180;4.462;2023-05-10T04:38:19;35.10;;;21.92;;
48629;SDS011;34426;52.180;4.462;2023-05-10T04:40:44;34.10;;;23.52;;
48629;SDS011;34426;52.180;4.462;2023-05-10T04:43:10;32.88;;;23.00;;
48629;SDS011;34426;52.180;4.462;2023-05-10T04:45:35;35.38;;;22.00;;
48629;SDS011;34426;52.180;4.462;2023-05-10T04:48:00;38.70;;;22.90;;
48629;SDS011;34426;52.180;4.462;2023-05-10T04:50:26;37.72;;;21.98;;
48629;SDS011;34426;52.180;4.462;2023-05-10T04:52:53;34.38;;;20.83;;
48629;SDS011;34426;52.180;4.462;2023-05-10T04:55:18;33.90;;;21.48;;
48629;SDS011;34426;52.180;4.462;2023-05-10T04:57:44;34.88;;;22.45;;
48629;SDS011;34426;52.180;4.462;2023-05-10T05:00:09;28.17;;;19.48;;
48629;SDS011;34426;52.180;4.462;2023-05-10T05:02:35;34.00;;;19.05;;
48629;SDS011;34426;52.180;4.462;2023-05-10T05:05:01;33.65;;;20.67;;
48629;SDS011;34426;52.180;4.462;2023-05-10T05:07:26;30.00;;;20.90;;
48629;SDS011;34426;52.180;4.462;2023-05-10T05:09:53;31.55;;;20.33;;
48629;SDS011;34426;52.180;4.462;2023-05-10T05:12:19;37.95;;;21.20;;
48629;SDS011;34426;52.180;4.462;2023-05-10T05:14:44;39.72;;;21.15;;
48629;SDS011;34426;52.180;4.462;2023-05-10T05:17:10;40.17;;;21.60;;
48629;SDS011;34426;52.180;4.462;2023-05-10T05:19:35;31.30;;;20.17;;
48629;SDS011;34426;52.180;4.462;2023-05-10T05:22:01;31.48;;;19.27;;
48629;SDS011;34426;52.180;4.462;2023-05-10T05:24:26;27.65;;;16.67;;
48629;SDS011;34426;52.180;4.462;2023-05-10T05:26:53;30.25;;;18.40;;
48629;SDS011;34426;52.180;4.462;2023-05-10T05:29:18;24.80;;;16.75;;
48629;SDS011;34426;52.180;4.462;2023-05-10T05:31:44;21.45;;;13.63;;
48629;SDS011;34426;52.180;4.462;2023-05-10T05:34:09;16.38;;;10.93;;
48629;SDS011;34426;52.180;4.462;2023-05-10T05:36:36;16.30;;;10.05;;
48629;SDS011;34426;52.180;4.462;2023-05-10T05:39:02;12.40;;;8.57;;
48629;SDS011;34426;52.180;4.462;2023-05-10T05:41:27;15.00;;;7.78;;
48629;SDS011;34426;52.180;4.462;2023-05-10T05:43:54;8.43;;;6.55;;
48629;SDS011;34426;52.180;4.462;2023-05-10T05:46:19;7.50;;;6.43;;
48629;SDS011;34426;52.180;4.462;2023-05-10T05:48:45;8.90;;;5.72;;
48629;SDS011;34426;52.180;4.462;2023-05-10T05:51:10;9.10;;;6.15;;
48629;SDS011;34426;52.180;4.462;2023-05-10T05:53:36;11.25;;;6.22;;
48629;SDS011;34426;52.180;4.462;2023-05-10T05:56:01;8.68;;;6.20;;
48629;SDS011;34426;52.180;4.462;2023-05-10T05:58:27;6.38;;;5.00;;
48629;SDS011;34426;52.180;4.462;2023-05-10T06:00:54;6.00;;;5.35;;
48629;SDS011;34426;52.180;4.462;2023-05-10T06:03:19;5.38;;;4.43;;
48629;SDS011;34426;52.180;4.462;2023-05-10T06:05:45;4.18;;;3.80;;
48629;SDS011;34426;52.180;4.462;2023-05-10T06:08:10;5.70;;;3.40;;
48629;SDS011;34426;52.180;4.462;2023-05-10T06:10:36;4.28;;;3.88;;
48629;SDS011;34426;52.180;4.462;2023-05-10T06:13:02;3.95;;;3.55;;
48629;SDS011;34426;52.180;4.462;2023-05-10T06:15:27;4.78;;;3.67;;
48629;SDS011;34426;52.180;4.462;2023-05-10T06:17:55;3.53;;;3.15;;
48629;SDS011;34426;52.180;4.462;2023-05-10T06:20:23;7.43;;;4.15;;
48629;SDS011;34426;52.180;4.462;2023-05-10T06:22:48;7.38;;;4.28;;
48629;SDS011;34426;52.180;4.462;2023-05-10T06:25:14;4.07;;;3.67;;
48629;SDS011;34426;52.180;4.462;2023-05-10T06:27:39;4.88;;;4.13;;
48629;SDS011;34426;52.180;4.462;2023-05-10T06:30:05;4.55;;;4.18;;
48629;SDS011;34426;52.180;4.462;2023-05-10T06:32:34;5.95;;;5.10;;
48629;SDS011;34426;52.180;4.462;2023-05-10T06:35:01;5.75;;;5.25;;
48629;SDS011;34426;52.180;4.462;2023-05-10T06:37:27;8.00;;;6.32;;
48629;SDS011;34426;52.180;4.462;2023-05-10T06:39:52;7.78;;;6.97;;
48629;SDS011;34426;52.180;4.462;2023-05-10T06:42:18;7.00;;;6.30;;
48629;SDS011;34426;52.180;4.462;2023-05-10T06:44:43;7.10;;;6.32;;
48629;SDS011;34426;52.180;4.462;2023-05-10T06:47:08;7.05;;;5.85;;
48629;SDS011;34426;52.180;4.462;2023-05-10T06:49:34;6.28;;;5.53;;
48629;SDS011;34426;52.180;4.462;2023-05-10T06:52:01;8.23;;;6.45;;
48629;SDS011;34426;52.180;4.462;2023-05-10T06:54:26;12.82;;;6.63;;
48629;SDS011;34426;52.180;4.462;2023-05-10T06:56:52;8.95;;;7.13;;
48629;SDS011;34426;52.180;4.462;2023-05-10T06:59:17;12.82;;;8.02;;
48629;SDS011;34426;52.180;4.462;2023-05-10T07:01:43;15.23;;;7.80;;
48629;SDS011;34426;52.180;4.462;2023-05-10T07:04:08;13.45;;;8.10;;
48629;SDS011;34426;52.180;4.462;2023-05-10T07:06:33;11.43;;;7.20;;
48629;SDS011;34426;52.180;4.462;2023-05-10T07:09:00;14.15;;;6.15;;
48629;SDS011;34426;52.180;4.462;2023-05-10T07:11:26;9.80;;;5.53;;
48629;SDS011;34426;52.180;4.462;2023-05-10T07:13:51;8.98;;;4.85;;
48629;SDS011;34426;52.180;4.462;2023-05-10T07:16:17;8.43;;;5.63;;
48629;SDS011;34426;52.180;4.462;2023-05-10T07:18:42;9.30;;;5.95;;
48629;SDS011;34426;52.180;4.462;2023-05-10T07:21:08;9.63;;;5.05;;
48629;SDS011;34426;52.180;4.462;2023-05-10T07:23:33;10.38;;;6.78;;
48629;SDS011;34426;52.180;4.462;2023-05-10T07:26:00;7.47;;;6.10;;
48629;SDS011;34426;52.180;4.462;2023-05-10T07:28:25;10.38;;;6.28;;
48629;SDS011;34426;52.180;4.462;2023-05-10T07:30:51;8.57;;;5.43;;
48629;SDS011;34426;52.180;4.462;2023-05-10T07:33:16;13.60;;;4.25;;
48629;SDS011;34426;52.180;4.462;2023-05-10T07:35:42;4.88;;;3.88;;
48629;SDS011;34426;52.180;4.462;2023-05-10T07:38:07;9.77;;;4.13;;
48629;SDS011;34426;52.180;4.462;2023-05-10T07:40:33;5.38;;;3.40;;
48629;SDS011;34426;52.180;4.462;2023-05-10T07:43:00;4.30;;;3.67;;
48629;SDS011;34426;52.180;4.462;2023-05-10T07:45:25;6.65;;;3.13;;
48629;SDS011;34426;52.180;4.462;2023-05-10T07:47:51;5.03;;;2.80;;
48629;SDS011;34426;52.180;4.462;2023-05-10T07:50:16;3.78;;;2.95;;
48629;SDS011;34426;52.180;4.462;2023-05-10T07:52:42;3.92;;;2.65;;
48629;SDS011;34426;52.180;4.462;2023-05-10T07:55:08;3.28;;;2.20;;
48629;SDS011;34426;52.180;4.462;2023-05-10T08:02:37;2.42;;;2.15;;
48629;SDS011;34426;52.180;4.462;2023-05-10T08:05:03;11.80;;;2.42;;
48629;SDS011;34426;52.180;4.462;2023-05-10T08:07:29;3.92;;;2.30;;
48629;SDS011;34426;52.180;4.462;2023-05-10T08:09:54;3.38;;;1.92;;
48629;SDS011;34426;52.180;4.462;2023-05-10T08:12:20;5.07;;;2.35;;
48629;SDS011;34426;52.180;4.462;2023-05-10T08:14:48;5.45;;;2.40;;
48629;SDS011;34426;52.180;4.462;2023-05-10T08:17:13;4.63;;;2.45;;
48629;SDS011;34426;52.180;4.462;2023-05-10T08:19:40;2.75;;;2.42;;
48629;SDS011;34426;52.180;4.462;2023-05-10T08:22:06;5.28;;;2.50;;
48629;SDS011;34426;52.180;4.462;2023-05-10T08:24:31;4.53;;;2.40;;
48629;SDS011;34426;52.180;4.462;2023-05-10T08:26:56;4.35;;;2.58;;
48629;SDS011;34426;52.180;4.462;2023-05-10T08:29:22;5.07;;;2.20;;
48629;SDS011;34426;52.180;4.462;2023-05-10T08:31:47;2.55;;;2.25;;
48629;SDS011;34426;52.180;4.462;2023-05-10T08:34:13;4.97;;;2.13;;
48629;SDS011;34426;52.180;4.462;2023-05-10T08:36:40;4.72;;;1.90;;
48629;SDS011;34426;52.180;4.462;2023-05-10T08:39:05;5.43;;;2.20;;
48629;SDS011;34426;52.180;4.462;2023-05-10T08:41:31;5.57;;;2.30;;
48629;SDS011;34426;52.180;4.462;2023-05-10T08:43:58;7.35;;;1.90;;
48629;SDS011;34426;52.180;4.462;2023-05-10T08:46:28;3.40;;;1.75;;
48629;SDS011;34426;52.180;4.462;2023-05-10T08:48:54;4.93;;;2.88;;
48629;SDS011;34426;52.180;4.462;2023-05-10T08:51:22;3.53;;;2.10;;
48629;SDS011;34426;52.180;4.462;2023-05-10T08:53:51;6.47;;;2.97;;
48629;SDS011;34426;52.180;4.462;2023-05-10T08:56:16;6.57;;;3.00;;
48629;SDS011;34426;52.180;4.462;2023-05-10T08:58:43;5.00;;;2.28;;
48629;SDS011;34426;52.180;4.462;2023-05-10T09:01:09;4.18;;;3.03;;
48629;SDS011;34426;52.180;4.462;2023-05-10T09:03:34;3.65;;;2.97;;
48629;SDS011;34426;52.180;4.462;2023-05-10T09:06:00;4.20;;;3.25;;
48629;SDS011;34426;52.180;4.462;2023-05-10T09:08:26;5.43;;;3.70;;
48629;SDS011;34426;52.180;4.462;2023-05-10T09:10:53;4.65;;;3.72;;
48629;SDS011;34426;52.180;4.462;2023-05-10T09:13:20;6.82;;;5.50;;
48629;SDS011;34426;52.180;4.462;2023-05-10T09:15:46;7.82;;;7.00;;
48629;SDS011;34426;52.180;4.462;2023-05-10T09:18:12;11.85;;;6.97;;
48629;SDS011;34426;52.180;4.462;2023-05-10T09:20:38;24.35;;;10.57;;
48629;SDS011;34426;52.180;4.462;2023-05-10T09:23:04;11.23;;;8.63;;
48629;SDS011;34426;52.180;4.462;2023-05-10T09:25:29;15.00;;;9.55;;
48629;SDS011;34426;52.180;4.462;2023-05-10T09:27:56;23.83;;;12.52;;
48629;SDS011;34426;52.180;4.462;2023-05-10T09:30:25;58.13;;;20.55;;
48629;SDS011;34426;52.180;4.462;2023-05-10T09:32:52;22.13;;;12.90;;
48629;SDS011;34426;52.180;4.462;2023-05-10T09:35:18;22.52;;;11.90;;
48629;SDS011;34426;52.180;4.462;2023-05-10T09:37:45;15.18;;;10.68;;
48629;SDS011;34426;52.180;4.462;2023-05-10T09:40:13;14.75;;;8.20;;
48629;SDS011;34426;52.180;4.462;2023-05-10T09:42:40;17.38;;;10.30;;
48629;SDS011;34426;52.180;4.462;2023-05-10T09:45:08;18.10;;;11.15;;
48629;SDS011;34426;52.180;4.462;2023-05-10T09:47:35;12.95;;;9.30;;
48629;SDS011;34426;52.180;4.462;2023-05-10T09:50:00;18.02;;;11.25;;
48629;SDS011;34426;52.180;4.462;2023-05-10T09:52:26;18.90;;;8.93;;
48629;SDS011;34426;52.180;4.462;2023-05-10T09:54:52;18.42;;;11.15;;
48629;SDS011;34426;52.180;4.462;2023-05-10T09:57:20;17.85;;;10.80;;
48629;SDS011;34426;52.180;4.462;2023-05-10T09:59:46;18.05;;;11.48;;
48629;SDS011;34426;52.180;4.462;2023-05-10T10:02:13;20.13;;;12.70;;
48629;SDS011;34426;52.180;4.462;2023-05-10T10:04:39;20.30;;;13.65;;
48629;SDS011;34426;52.180;4.462;2023-05-10T10:07:05;21.83;;;13.10;;
48629;SDS011;34426;52.180;4.462;2023-05-10T10:09:31;27.65;;;14.20;;
48629;SDS011;34426;52.180;4.462;2023-05-10T10:11:57;25.80;;;16.15;;
48629;SDS011;34426;52.180;4.462;2023-05-10T10:14:23;29.05;;;16.92;;
48629;SDS011;34426;52.180;4.462;2023-05-10T10:16:48;32.50;;;16.75;;
48629;SDS011;34426;52.180;4.462;2023-05-10T10:19:16;36.65;;;17.60;;
48629;SDS011;34426;52.180;4.462;2023-05-10T10:21:42;34.25;;;17.80;;
48629;SDS011;34426;52.180;4.462;2023-05-10T10:24:07;34.03;;;17.75;;
48629;SDS011;34426;52.180;4.462;2023-05-10T10:26:33;31.10;;;17.48;;
48629;SDS011;34426;52.180;4.462;2023-05-10T10:29:00;30.73;;;15.75;;
48629;SDS011;34426;52.180;4.462;2023-05-10T10:31:36;33.22;;;18.35;;
48629;SDS011;34426;52.180;4.462;2023-05-10T10:34:06;41.40;;;19.55;;
48629;SDS011;34426;52.180;4.462;2023-05-10T10:36:33;46.63;;;19.63;;
48629;SDS011;34426;52.180;4.462;2023-05-10T10:39:08;41.60;;;19.27;;
48629;SDS011;34426;52.180;4.462;2023-05-10T10:41:35;48.92;;;20.85;;
48629;SDS011;34426;52.180;4.462;2023-05-10T10:47:05;32.97;;;17.58;;
48629;SDS011;34426;52.180;4.462;2023-05-10T10:49:33;34.27;;;16.17;;
48629;SDS011;34426;52.180;4.462;2023-05-10T10:54:58;26.98;;;13.18;;
48629;SDS011;34426;52.180;4.462;2023-05-10T10:57:25;29.92;;;14.32;;
48629;SDS011;34426;52.180;4.462;2023-05-10T10:59:51;24.25;;;11.20;;
48629;SDS011;34426;52.180;4.462;2023-05-10T11:02:32;18.00;;;9.05;;
48629;SDS011;34426;52.180;4.462;2023-05-10T11:04:58;19.23;;;8.93;;
48629;SDS011;34426;52.180;4.462;2023-05-10T11:07:24;18.17;;;9.07;;
48629;SDS011;34426;52.180;4.462;2023-05-10T11:13:12;14.35;;;6.82;;
48629;SDS011;34426;52.180;4.462;2023-05-10T11:15:39;16.23;;;7.88;;
48629;SDS011;34426;52.180;4.462;2023-05-10T11:18:16;17.45;;;8.25;;
48629;SDS011;34426;52.180;4.462;2023-05-10T11:20:42;13.52;;;6.68;;
48629;SDS011;34426;52.180;4.462;2023-05-10T11:30:55;15.80;;;8.48;;
48629;SDS011;34426;52.180;4.462;2023-05-10T11:33:21;18.20;;;8.93;;
48629;SDS011;34426;52.180;4.462;2023-05-10T11:35:48;18.27;;;8.32;;
48629;SDS011;34426;52.180;4.462;2023-05-10T11:38:13;14.15;;;7.93;;
48629;SDS011;34426;52.180;4.462;2023-05-10T11:40:39;16.88;;;7.95;;
48629;SDS011;34426;52.180;4.462;2023-05-10T11:43:05;16.23;;;8.15;;
48629;SDS011;34426;52.180;4.462;2023-05-10T11:45:31;19.73;;;9.80;;
48629;SDS011;34426;52.180;4.462;2023-05-10T11:47:58;21.00;;;10.13;;
48629;SDS011;34426;52.180;4.462;2023-05-10T11:50:25;15.13;;;7.50;;
48629;SDS011;34426;52.180;4.462;2023-05-10T11:52:51;15.30;;;7.10;;
48629;SDS011;34426;52.180;4.462;2023-05-10T11:55:17;12.32;;;6.22;;
48629;SDS011;34426;52.180;4.462;2023-05-10T11:57:42;9.85;;;5.30;;
48629;SDS011;34426;52.180;4.462;2023-05-10T12:00:09;9.45;;;4.88;;
48629;SDS011;34426;52.180;4.462;2023-05-10T12:02:36;6.93;;;4.85;;
48629;SDS011;34426;52.180;4.462;2023-05-10T12:05:03;11.95;;;5.68;;
48629;SDS011;34426;52.180;4.462;2023-05-10T12:07:30;13.98;;;8.30;;
48629;SDS011;34426;52.180;4.462;2023-05-10T12:10:07;17.00;;;8.13;;
48629;SDS011;34426;52.180;4.462;2023-05-10T12:12:37;17.05;;;8.73;;
48629;SDS011;34426;52.180;4.462;2023-05-10T12:15:04;18.95;;;9.23;;
48629;SDS011;34426;52.180;4.462;2023-05-10T12:17:31;19.60;;;10.57;;
48629;SDS011;34426;52.180;4.462;2023-05-10T12:19:58;19.88;;;10.68;;
48629;SDS011;34426;52.180;4.462;2023-05-10T12:22:26;25.67;;;11.35;;
48629;SDS011;34426;52.180;4.462;2023-05-10T12:24:51;26.05;;;11.88;;
48629;SDS011;34426;52.180;4.462;2023-05-10T12:27:19;19.63;;;10.20;;
48629;SDS011;34426;52.180;4.462;2023-05-10T12:29:45;19.75;;;8.93;;
48629;SDS011;34426;52.180;4.462;2023-05-10T12:32:10;17.73;;;9.07;;
48629;SDS011;34426;52.180;4.462;2023-05-10T12:34:36;19.23;;;9.50;;
48629;SDS011;34426;52.180;4.462;2023-05-10T12:37:01;19.17;;;10.32;;
48629;SDS011;34426;52.180;4.462;2023-05-10T12:39:38;24.85;;;11.60;;
48629;SDS011;34426;52.180;4.462;2023-05-10T12:42:04;27.13;;;13.27;;
48629;SDS011;34426;52.180;4.462;2023-05-10T12:44:30;31.23;;;14.07;;
48629;SDS011;34426;52.180;4.462;2023-05-10T12:46:55;28.85;;;13.38;;
48629;SDS011;34426;52.180;4.462;2023-05-10T12:49:21;33.55;;;13.88;;
48629;SDS011;34426;52.180;4.462;2023-05-10T12:51:46;27.88;;;13.70;;
48629;SDS011;34426;52.180;4.462;2023-05-10T12:54:13;31.60;;;13.38;;
48629;SDS011;34426;52.180;4.462;2023-05-10T12:56:40;34.40;;;14.55;;
48629;SDS011;34426;52.180;4.462;2023-05-10T12:59:05;32.25;;;14.88;;
48629;SDS011;34426;52.180;4.462;2023-05-10T13:01:32;27.30;;;14.18;;
48629;SDS011;34426;52.180;4.462;2023-05-10T13:03:58;30.17;;;13.50;;
48629;SDS011;34426;52.180;4.462;2023-05-10T13:06:23;24.42;;;14.15;;
48629;SDS011;34426;52.180;4.462;2023-05-10T13:08:49;32.05;;;14.00;;
48629;SDS011;34426;52.180;4.462;2023-05-10T13:11:15;23.48;;;14.10;;
48629;SDS011;34426;52.180;4.462;2023-05-10T13:13:42;27.58;;;13.23;;
48629;SDS011;34426;52.180;4.462;2023-05-10T13:16:07;24.48;;;12.98;;
48629;SDS011;34426;52.180;4.462;2023-05-10T13:18:33;26.95;;;13.93;;
48629;SDS011;34426;52.180;4.462;2023-05-10T13:20:58;21.92;;;12.88;;
48629;SDS011;34426;52.180;4.462;2023-05-10T13:23:24;23.40;;;13.00;;
48629;SDS011;34426;52.180;4.462;2023-05-10T13:25:50;25.77;;;12.68;;
48629;SDS011;34426;52.180;4.462;2023-05-10T13:28:15;21.20;;;11.98;;
48629;SDS011;34426;52.180;4.462;2023-05-10T13:30:42;26.73;;;12.00;;
48629;SDS011;34426;52.180;4.462;2023-05-10T13:33:07;22.20;;;12.15;;
48629;SDS011;34426;52.180;4.462;2023-05-10T13:35:33;21.60;;;12.68;;
48629;SDS011;34426;52.180;4.462;2023-05-10T13:37:59;23.45;;;13.32;;
48629;SDS011;34426;52.180;4.462;2023-05-10T13:40:24;20.48;;;12.18;;
48629;SDS011;34426;52.180;4.462;2023-05-10T13:42:50;24.27;;;12.27;;
48629;SDS011;34426;52.180;4.462;2023-05-10T13:45:15;20.77;;;11.88;;
48629;SDS011;34426;52.180;4.462;2023-05-10T13:47:42;20.00;;;10.85;;
48629;SDS011;34426;52.180;4.462;2023-05-10T13:50:07;18.92;;;11.45;;
48629;SDS011;34426;52.180;4.462;2023-05-10T13:52:33;21.17;;;11.55;;
48629;SDS011;34426;52.180;4.462;2023-05-10T13:54:59;19.90;;;11.63;;
48629;SDS011;34426;52.180;4.462;2023-05-10T13:57:24;19.98;;;11.68;;
48629;SDS011;34426;52.180;4.462;2023-05-10T13:59:52;17.15;;;10.60;;
48629;SDS011;34426;52.180;4.462;2023-05-10T14:02:17;20.33;;;11.75;;
48629;SDS011;34426;52.180;4.462;2023-05-10T14:04:44;19.23;;;12.05;;
48629;SDS011;34426;52.180;4.462;2023-05-10T14:07:09;20.08;;;12.10;;
48629;SDS011;34426;52.180;4.462;2023-05-10T14:09:35;20.58;;;11.65;;
48629;SDS011;34426;52.180;4.462;2023-05-10T14:12:00;18.30;;;10.45;;
48629;SDS011;34426;52.180;4.462;2023-05-10T14:14:26;20.35;;;11.52;;
48629;SDS011;34426;52.180;4.462;2023-05-10T14:16:51;12.77;;;10.07;;
48629;SDS011;34426;52.180;4.462;2023-05-10T14:19:17;21.23;;;12.60;;
48629;SDS011;34426;52.180;4.462;2023-05-10T14:21:44;19.55;;;11.85;;
48629;SDS011;34426;52.180;4.462;2023-05-10T14:24:09;17.60;;;12.57;;
48629;SDS011;34426;52.180;4.462;2023-05-10T14:26:35;17.98;;;12.93;;
48629;SDS011;34426;52.180;4.462;2023-05-10T14:29:00;17.90;;;12.85;;
48629;SDS011;34426;52.180;4.462;2023-05-10T14:31:26;17.13;;;10.98;;
48629;SDS011;34426;52.180;4.462;2023-05-10T14:33:52;15.38;;;11.38;;
48629;SDS011;34426;52.180;4.462;2023-05-10T14:36:17;17.55;;;11.27;;
48629;SDS011;34426;52.180;4.462;2023-05-10T14:38:44;17.23;;;11.35;;
48629;SDS011;34426;52.180;4.462;2023-05-10T14:41:10;17.77;;;11.65;;
48629;SDS011;34426;52.180;4.462;2023-05-10T14:43:35;19.40;;;11.77;;
48629;SDS011;34426;52.180;4.462;2023-05-10T14:46:01;20.15;;;12.45;;
48629;SDS011;34426;52.180;4.462;2023-05-10T14:48:26;18.25;;;13.00;;
48629;SDS011;34426;52.180;4.462;2023-05-10T14:50:52;18.90;;;13.73;;
48629;SDS011;34426;52.180;4.462;2023-05-10T14:53:17;21.58;;;13.20;;
48629;SDS011;34426;52.180;4.462;2023-05-10T14:55:44;20.67;;;13.25;;